Time;durP1;ratioP1;P1;durP2;ratioP2;P2;SDS_P1;SDS_P2;PMS_P1;PMS_P2;Temp;Humidity;BMP_temperature;BMP_pressure;BME280_temperature;BME280_humidity;BME280_pressure;Samples;Min_cycle;Max_cycle;Signal;HPM_P1;HPM_P2
2022/06/01 00:00:22;;;;;;;5.70;4.60;;;;;;;;;;5113243;28;20569;-74
2022/06/01 00:02:54;;;;;;;6.87;5.37;;;;;;;;;;5113998;27;20436;-75
2022/06/01 00:05:26;;;;;;;6.10;5.30;;;;;;;;;;5117606;27;20436;-75
2022/06/01 00:08:00;;;;;;;5.83;5.23;;;;;;;;;;5122745;27;20445;-75
2022/06/01 00:10:33;;;;;;;6.17;5.40;;;;;;;;;;5131339;27;20532;-75
2022/06/01 00:13:05;;;;;;;5.70;4.40;;;;;;;;;;5131267;27;20430;-75
2022/06/01 00:15:37;;;;;;;6.13;5.20;;;;;;;;;;5130095;27;20501;-75
2022/06/01 00:18:09;;;;;;;6.57;5.57;;;;;;;;;;5131339;27;20454;-75
2022/06/01 00:20:42;;;;;;;7.60;5.70;;;;;;;;;;5116116;27;20489;-74
2022/06/01 00:23:15;;;;;;;8.40;5.80;;;;;;;;;;5127688;27;20876;-75
2022/06/01 00:25:48;;;;;;;5.87;5.37;;;;;;;;;;5114460;27;20434;-74
2022/06/01 00:28:20;;;;;;;6.70;5.00;;;;;;;;;;5099778;27;20430;-74
2022/06/01 00:30:52;;;;;;;5.83;5.17;;;;;;;;;;5095084;28;20438;-75
2022/06/01 00:33:24;;;;;;;5.77;4.67;;;;;;;;;;5110643;28;20432;-74
2022/06/01 00:35:57;;;;;;;5.10;4.23;;;;;;;;;;5110381;28;20439;-74
2022/06/01 00:38:30;;;;;;;5.43;4.60;;;;;;;;;;5110458;28;20435;-74
2022/06/01 00:41:02;;;;;;;4.17;3.77;;;;;;;;;;5110302;28;20486;-75
2022/06/01 00:43:44;;;;;;;4.90;4.40;;;;;;;;;;5111598;28;20533;-76
2022/06/01 00:46:17;;;;;;;5.67;4.60;;;;;;;;;;5111867;28;20824;-76
2022/06/01 00:48:53;;;;;;;5.57;4.47;;;;;;;;;;5115203;27;20489;-75
2022/06/01 00:51:28;;;;;;;7.23;5.17;;;;;;;;;;5099739;27;20445;-75
2022/06/01 00:54:03;;;;;;;6.03;4.57;;;;;;;;;;5110433;27;20438;-76
2022/06/01 00:56:38;;;;;;;4.73;4.33;;;;;;;;;;5091991;28;21021;-74
2022/06/01 00:59:12;;;;;;;6.80;5.10;;;;;;;;;;5109948;28;20438;-75
2022/06/01 01:01:45;;;;;;;5.10;4.60;;;;;;;;;;5092838;28;20475;-75
2022/06/01 01:04:17;;;;;;;4.80;4.30;;;;;;;;;;5109586;28;20426;-75
2022/06/01 01:06:49;;;;;;;4.50;4.10;;;;;;;;;;5112200;28;20462;-75
2022/06/01 01:09:23;;;;;;;8.20;4.30;;;;;;;;;;5112185;28;20443;-74
2022/06/01 01:11:57;;;;;;;4.97;3.80;;;;;;;;;;5115845;27;20914;-75
2022/06/01 01:14:31;;;;;;;3.60;3.30;;;;;;;;;;5116359;27;20801;-75
2022/06/01 01:17:04;;;;;;;4.70;3.53;;;;;;;;;;5108154;28;20812;-75
2022/06/01 01:19:38;;;;;;;3.90;3.53;;;;;;;;;;5109709;28;20437;-75
2022/06/01 01:22:20;;;;;;;4.30;3.90;;;;;;;;;;5109972;28;20433;-75
2022/06/01 01:24:58;;;;;;;4.03;3.57;;;;;;;;;;5109934;28;20443;-75
2022/06/01 01:27:31;;;;;;;6.17;3.83;;;;;;;;;;5109972;28;20481;-75
2022/06/01 01:30:04;;;;;;;3.93;3.53;;;;;;;;;;5111773;28;20434;-75
2022/06/01 01:32:36;;;;;;;4.20;3.50;;;;;;;;;;5111948;28;20438;-75
2022/06/01 01:35:08;;;;;;;4.10;2.93;;;;;;;;;;5116211;28;21838;-74
2022/06/01 01:37:40;;;;;;;5.00;3.63;;;;;;;;;;5114209;27;20454;-75
2022/06/01 01:40:13;;;;;;;4.60;4.20;;;;;;;;;;5109355;28;20994;-75
2022/06/01 01:42:48;;;;;;;4.23;3.30;;;;;;;;;;5109334;28;20446;-74
2022/06/01 01:45:24;;;;;;;4.70;3.80;;;;;;;;;;5109463;28;20919;-74
2022/06/01 01:47:56;;;;;;;5.90;3.70;;;;;;;;;;5109691;28;20462;-74
2022/06/01 01:50:29;;;;;;;6.47;3.03;;;;;;;;;;5110391;28;20558;-76
2022/06/01 01:53:01;;;;;;;4.70;4.07;;;;;;;;;;5111612;28;20443;-75
2022/06/01 01:55:39;;;;;;;8.83;4.40;;;;;;;;;;5112549;28;20475;-75
2022/06/01 01:58:17;;;;;;;6.17;3.67;;;;;;;;;;5116665;27;20434;-75
2022/06/01 02:00:52;;;;;;;4.20;3.20;;;;;;;;;;5115842;27;20466;-75
2022/06/01 02:03:25;;;;;;;3.80;3.30;;;;;;;;;;5113200;28;20437;-76
2022/06/01 02:08:46;;;;;;;3.77;3.30;;;;;;;;;;5097391;28;20446;-74
2022/06/01 02:14:05;;;;;;;3.83;2.97;;;;;;;;;;5093858;28;20514;-77
2022/06/01 02:16:40;;;;;;;3.60;2.70;;;;;;;;;;5093430;28;20454;-75
2022/06/01 02:19:15;;;;;;;3.50;2.87;;;;;;;;;;5110585;27;20428;-74
2022/06/01 02:21:47;;;;;;;4.17;3.33;;;;;;;;;;5119358;27;21909;-75
2022/06/01 02:24:19;;;;;;;4.50;3.03;;;;;;;;;;5113371;27;20540;-75
2022/06/01 02:26:52;;;;;;;3.73;3.30;;;;;;;;;;5133029;27;20449;-76
2022/06/01 02:29:29;;;;;;;2.83;2.63;;;;;;;;;;5133321;27;20433;-76
2022/06/01 02:32:02;;;;;;;5.83;3.73;;;;;;;;;;5116396;27;20437;-76
2022/06/01 02:34:35;;;;;;;3.50;3.20;;;;;;;;;;5129815;27;20459;-75
2022/06/01 02:37:08;;;;;;;4.37;3.80;;;;;;;;;;5114397;28;21031;-75
2022/06/01 02:39:43;;;;;;;2.97;2.77;;;;;;;;;;5114514;28;20446;-75
2022/06/01 02:44:59;;;;;;;3.40;3.10;;;;;;;;;;5119470;27;20820;-76
2022/06/01 02:47:32;;;;;;;4.33;3.00;;;;;;;;;;5114743;27;20820;-75
2022/06/01 02:50:04;;;;;;;5.97;3.20;;;;;;;;;;5132631;27;20437;-75
2022/06/01 02:52:36;;;;;;;4.53;3.13;;;;;;;;;;5133040;27;20458;-75
2022/06/01 02:55:09;;;;;;;2.80;2.60;;;;;;;;;;5132903;27;20911;-75
2022/06/01 02:57:41;;;;;;;3.93;3.13;;;;;;;;;;5124023;27;20474;-75
2022/06/01 03:00:18;;;;;;;4.13;2.67;;;;;;;;;;5113993;28;20470;-75
2022/06/01 03:02:51;;;;;;;5.50;2.70;;;;;;;;;;5129328;27;20430;-75
2022/06/01 03:05:24;;;;;;;3.77;3.33;;;;;;;;;;5101420;27;20975;-75
2022/06/01 03:07:56;;;;;;;4.10;3.07;;;;;;;;;;5116954;27;20446;-75
2022/06/01 03:10:29;;;;;;;3.40;3.10;;;;;;;;;;5111664;28;20445;-75
2022/06/01 03:13:03;;;;;;;3.67;3.20;;;;;;;;;;5112085;28;20545;-75
2022/06/01 03:15:37;;;;;;;3.57;3.27;;;;;;;;;;5110690;28;20473;-75
2022/06/01 03:18:09;;;;;;;4.23;3.77;;;;;;;;;;5112473;28;20466;-74
2022/06/01 03:20:42;;;;;;;3.83;3.33;;;;;;;;;;5112475;28;20489;-75
2022/06/01 03:23:14;;;;;;;3.67;3.37;;;;;;;;;;5113719;28;20446;-75
2022/06/01 03:25:46;;;;;;;3.60;3.17;;;;;;;;;;5114337;27;20446;-75
2022/06/01 03:28:18;;;;;;;4.10;3.30;;;;;;;;;;5118153;27;20469;-75
2022/06/01 03:30:57;;;;;;;4.33;3.50;;;;;;;;;;5115407;27;20433;-75
2022/06/01 03:33:29;;;;;;;3.40;3.10;;;;;;;;;;5111446;28;20769;-76
2022/06/01 03:36:01;;;;;;;3.30;3.10;;;;;;;;;;5111263;28;20443;-75
2022/06/01 03:38:33;;;;;;;3.73;3.20;;;;;;;;;;5111383;28;20882;-75
2022/06/01 03:41:05;;;;;;;3.07;2.60;;;;;;;;;;5111715;28;20474;-75
2022/06/01 03:46:20;;;;;;;2.87;2.67;;;;;;;;;;5097348;28;20460;-75
2022/06/01 03:48:52;;;;;;;4.80;3.43;;;;;;;;;;5115227;27;20441;-75
2022/06/01 03:51:26;;;;;;;4.10;3.10;;;;;;;;;;5118266;27;20434;-75
2022/06/01 03:53:58;;;;;;;5.97;3.63;;;;;;;;;;5126399;27;20825;-75
2022/06/01 03:56:30;;;;;;;3.50;3.20;;;;;;;;;;5131614;27;20471;-76
2022/06/01 03:59:03;;;;;;;3.20;2.90;;;;;;;;;;5131394;27;20510;-75
2022/06/01 04:01:36;;;;;;;5.30;3.40;;;;;;;;;;5131525;27;20989;-75
2022/06/01 04:04:08;;;;;;;4.50;3.00;;;;;;;;;;5131640;27;20442;-75
2022/06/01 04:06:40;;;;;;;3.33;3.03;;;;;;;;;;5112455;27;21018;-75
2022/06/01 04:09:12;;;;;;;3.60;2.90;;;;;;;;;;5113058;28;20427;-75
2022/06/01 04:11:44;;;;;;;4.80;3.10;;;;;;;;;;5115861;27;20985;-75
2022/06/01 04:14:17;;;;;;;3.10;2.90;;;;;;;;;;5117519;27;20439;-76
2022/06/01 04:16:50;;;;;;;3.30;3.00;;;;;;;;;;5127771;27;20461;-75
2022/06/01 04:19:23;;;;;;;3.73;2.90;;;;;;;;;;5130784;27;20457;-76
2022/06/01 04:21:56;;;;;;;3.70;3.40;;;;;;;;;;5130226;27;20843;-75
2022/06/01 04:24:30;;;;;;;4.27;3.80;;;;;;;;;;5132012;27;20925;-75
2022/06/01 04:27:02;;;;;;;5.53;3.20;;;;;;;;;;5127465;27;20478;-74
2022/06/01 04:29:35;;;;;;;4.40;3.10;;;;;;;;;;5112616;28;20452;-75
2022/06/01 04:32:09;;;;;;;6.03;3.50;;;;;;;;;;5112355;28;20958;-75
2022/06/01 04:34:41;;;;;;;7.30;3.50;;;;;;;;;;5131278;27;20524;-75
2022/06/01 04:37:14;;;;;;;3.97;3.30;;;;;;;;;;5099976;27;20453;-75
2022/06/01 04:39:46;;;;;;;4.80;3.57;;;;;;;;;;5089624;28;20439;-75
2022/06/01 04:42:18;;;;;;;5.23;2.83;;;;;;;;;;5089722;28;20505;-76
2022/06/01 04:44:50;;;;;;;5.37;2.80;;;;;;;;;;5089863;28;20431;-74
2022/06/01 04:47:24;;;;;;;3.53;3.23;;;;;;;;;;5090145;28;20470;-75
2022/06/01 04:49:58;;;;;;;5.13;3.03;;;;;;;;;;5096917;27;20554;-75
2022/06/01 04:52:30;;;;;;;3.50;3.07;;;;;;;;;;5112883;27;20436;-76
2022/06/01 04:55:02;;;;;;;3.43;2.90;;;;;;;;;;5116768;27;20516;-75
2022/06/01 04:57:36;;;;;;;3.50;3.10;;;;;;;;;;5121388;27;20457;-76
2022/06/01 05:00:09;;;;;;;6.60;3.27;;;;;;;;;;5130603;27;20438;-76
2022/06/01 05:02:43;;;;;;;4.33;3.17;;;;;;;;;;5130297;27;20491;-74
2022/06/01 05:05:16;;;;;;;5.13;3.70;;;;;;;;;;5113426;27;20486;-75
2022/06/01 05:07:48;;;;;;;3.90;2.90;;;;;;;;;;5113239;27;20457;-75
2022/06/01 05:10:21;;;;;;;4.83;3.23;;;;;;;;;;5116871;27;20489;-75
2022/06/01 05:12:53;;;;;;;3.63;2.87;;;;;;;;;;5112208;28;20915;-75
2022/06/01 05:15:25;;;;;;;4.70;3.33;;;;;;;;;;5113408;28;20934;-76
2022/06/01 05:17:58;;;;;;;10.67;4.60;;;;;;;;;;5115533;27;20469;-75
2022/06/01 05:20:34;;;;;;;6.90;4.10;;;;;;;;;;5123240;28;20819;-75
2022/06/01 05:23:06;;;;;;;8.43;4.20;;;;;;;;;;5130586;28;20516;-74
2022/06/01 05:25:38;;;;;;;8.70;4.40;;;;;;;;;;5130027;28;20414;-75
2022/06/01 05:28:10;;;;;;;7.60;3.57;;;;;;;;;;5130325;27;20443;-76
2022/06/01 05:30:43;;;;;;;6.40;3.43;;;;;;;;;;5130188;28;20416;-75
2022/06/01 05:33:21;;;;;;;10.33;3.93;;;;;;;;;;5099047;28;20447;-75
2022/06/01 05:35:53;;;;;;;4.30;3.17;;;;;;;;;;5116093;28;20430;-75
2022/06/01 05:38:26;;;;;;;6.87;4.20;;;;;;;;;;5118188;27;20433;-76
2022/06/01 05:40:58;;;;;;;5.63;3.87;;;;;;;;;;5120447;27;20441;-76
2022/06/01 05:43:31;;;;;;;7.03;3.83;;;;;;;;;;5098401;28;20794;-75
2022/06/01 05:46:03;;;;;;;5.60;3.20;;;;;;;;;;5113838;28;20442;-76
2022/06/01 05:48:37;;;;;;;4.77;3.17;;;;;;;;;;5113601;28;20533;-76
2022/06/01 05:51:09;;;;;;;4.23;3.10;;;;;;;;;;5114183;28;20466;-76
2022/06/01 05:53:41;;;;;;;4.90;3.73;;;;;;;;;;5113371;28;20792;-74
2022/06/01 05:56:13;;;;;;;6.67;3.23;;;;;;;;;;5095438;28;20462;-75
2022/06/01 05:58:47;;;;;;;6.37;3.30;;;;;;;;;;5095176;28;20940;-78
2022/06/01 06:01:22;;;;;;;5.67;3.20;;;;;;;;;;5112182;27;20926;-76
2022/06/01 06:03:55;;;;;;;3.97;3.17;;;;;;;;;;5119464;27;20518;-74
2022/06/01 06:06:28;;;;;;;5.10;2.80;;;;;;;;;;5131824;27;20532;-76
2022/06/01 06:09:02;;;;;;;4.60;3.17;;;;;;;;;;5133289;27;20441;-75
2022/06/01 06:11:35;;;;;;;3.30;2.40;;;;;;;;;;5133228;27;20437;-74
2022/06/01 06:14:07;;;;;;;3.50;2.30;;;;;;;;;;5134086;27;20441;-74
2022/06/01 06:16:43;;;;;;;9.63;3.40;;;;;;;;;;5107040;28;20475;-74
2022/06/01 06:19:17;;;;;;;6.77;2.80;;;;;;;;;;5096130;28;20509;-74
2022/06/01 06:21:50;;;;;;;5.43;2.77;;;;;;;;;;5098708;28;20984;-74
2022/06/01 06:24:23;;;;;;;5.57;2.57;;;;;;;;;;5095462;28;20568;-73
2022/06/01 06:26:55;;;;;;;5.40;3.00;;;;;;;;;;5091251;28;20459;-74
2022/06/01 06:29:27;;;;;;;5.23;2.70;;;;;;;;;;5092711;28;20458;-75
2022/06/01 06:32:00;;;;;;;3.87;2.33;;;;;;;;;;5092983;28;20823;-73
2022/06/01 06:34:34;;;;;;;5.73;2.67;;;;;;;;;;5093150;28;20542;-73
2022/06/01 06:37:06;;;;;;;5.13;3.13;;;;;;;;;;5093844;28;20478;-73
2022/06/01 06:39:38;;;;;;;5.30;2.80;;;;;;;;;;5094562;28;20436;-72
2022/06/01 06:42:10;;;;;;;3.70;2.50;;;;;;;;;;5096626;28;22023;-73
2022/06/01 06:44:43;;;;;;;5.27;2.80;;;;;;;;;;5098112;28;20437;-73
2022/06/01 06:47:15;;;;;;;5.70;2.57;;;;;;;;;;5106601;28;20442;-74
2022/06/01 06:49:48;;;;;;;3.60;1.93;;;;;;;;;;5112671;28;20541;-73
2022/06/01 06:52:21;;;;;;;3.43;2.20;;;;;;;;;;5112885;28;20826;-73
2022/06/01 06:54:53;;;;;;;4.67;2.00;;;;;;;;;;5113530;28;20440;-73
2022/06/01 06:57:25;;;;;;;3.77;2.27;;;;;;;;;;5112593;28;20898;-73
2022/06/01 06:59:57;;;;;;;2.70;2.07;;;;;;;;;;5094629;27;20451;-74
2022/06/01 07:02:29;;;;;;;4.50;1.80;;;;;;;;;;5093926;28;20995;-72
2022/06/01 07:05:03;;;;;;;2.70;1.80;;;;;;;;;;5096368;28;20434;-75
2022/06/01 07:07:35;;;;;;;3.77;1.90;;;;;;;;;;5098498;28;20847;-75
2022/06/01 07:10:07;;;;;;;4.50;2.20;;;;;;;;;;5093391;28;20451;-75
2022/06/01 07:12:39;;;;;;;3.47;1.93;;;;;;;;;;5091583;28;20938;-74
2022/06/01 07:15:12;;;;;;;3.60;1.80;;;;;;;;;;5091348;28;20469;-76
2022/06/01 07:17:44;;;;;;;2.93;1.90;;;;;;;;;;5107423;28;20463;-76
2022/06/01 07:20:18;;;;;;;3.23;1.77;;;;;;;;;;5111546;28;20449;-76
2022/06/01 07:22:50;;;;;;;2.60;1.63;;;;;;;;;;5113875;28;20486;-76
2022/06/01 07:25:22;;;;;;;4.03;1.73;;;;;;;;;;5113710;28;20437;-75
2022/06/01 07:27:54;;;;;;;3.63;1.90;;;;;;;;;;5116198;27;20461;-75
2022/06/01 07:30:27;;;;;;;3.60;2.00;;;;;;;;;;5118205;27;20433;-75
2022/06/01 07:32:59;;;;;;;1.80;1.60;;;;;;;;;;5110759;27;20444;-74
2022/06/01 07:35:32;;;;;;;5.90;2.00;;;;;;;;;;5131929;27;20635;-75
2022/06/01 07:43:28;;;;;;;3.83;2.00;;;;;;;;;;5126193;27;20486;-74
2022/06/01 07:46:00;;;;;;;5.93;1.83;;;;;;;;;;5113259;28;20807;-74
2022/06/01 07:48:32;;;;;;;2.50;1.50;;;;;;;;;;5113573;28;20445;-75
2022/06/01 07:51:06;;;;;;;2.37;1.70;;;;;;;;;;5117214;27;20537;-75
2022/06/01 07:53:38;;;;;;;7.57;2.57;;;;;;;;;;5118199;27;20457;-74
2022/06/01 07:56:11;;;;;;;4.37;2.30;;;;;;;;;;5089173;28;20464;-74
2022/06/01 07:58:43;;;;;;;2.80;1.97;;;;;;;;;;5090484;28;20450;-74
2022/06/01 08:01:16;;;;;;;4.27;2.00;;;;;;;;;;5090953;28;20435;-74
2022/06/01 08:03:48;;;;;;;6.00;2.83;;;;;;;;;;5091144;28;21015;-75
2022/06/01 08:06:21;;;;;;;3.57;2.10;;;;;;;;;;5098102;28;20477;-74
2022/06/01 08:08:53;;;;;;;5.73;2.50;;;;;;;;;;5112856;28;20445;-74
2022/06/01 08:13:06;;;;;;;3.17;1.67;;;;;;;;;;5112931;28;21032;-75
2022/06/01 08:14:20;;;;;;;7.97;1.67;;;;;;;;;;5102028;27;20785;-75
2022/06/01 08:16:52;;;;;;;5.60;1.90;;;;;;;;;;5119515;27;20516;-75
2022/06/01 08:19:24;;;;;;;2.33;1.50;;;;;;;;;;5130942;27;20922;-75
2022/06/01 08:21:57;;;;;;;4.47;1.83;;;;;;;;;;5130884;27;20794;-74
2022/06/01 08:24:30;;;;;;;7.00;1.73;;;;;;;;;;5131316;27;20437;-75
2022/06/01 08:27:02;;;;;;;3.67;1.93;;;;;;;;;;5131525;27;20476;-75
2022/06/01 08:29:35;;;;;;;3.00;1.50;;;;;;;;;;5119049;27;20533;-76
2022/06/01 08:32:07;;;;;;;2.10;1.63;;;;;;;;;;5112496;28;20533;-75
2022/06/01 08:34:39;;;;;;;2.23;1.53;;;;;;;;;;5113442;27;20450;-75
2022/06/01 08:37:13;;;;;;;3.40;1.60;;;;;;;;;;5117012;27;20665;-74
2022/06/01 08:39:45;;;;;;;5.50;1.87;;;;;;;;;;5114022;27;20434;-75
2022/06/01 08:42:18;;;;;;;5.10;2.20;;;;;;;;;;5110147;28;20446;-75
2022/06/01 08:44:52;;;;;;;3.83;1.80;;;;;;;;;;5110150;28;20507;-75
2022/06/01 08:47:28;;;;;;;4.17;2.20;;;;;;;;;;5110661;28;20549;-75
2022/06/01 08:50:02;;;;;;;4.57;2.20;;;;;;;;;;5110710;28;20923;-74
2022/06/01 08:52:35;;;;;;;5.23;2.30;;;;;;;;;;5094318;28;20450;-76
2022/06/01 08:55:08;;;;;;;3.20;1.90;;;;;;;;;;5112111;28;20449;-77
2022/06/01 08:57:46;;;;;;;4.37;1.67;;;;;;;;;;5110508;27;21058;-77
2022/06/01 09:00:20;;;;;;;4.37;1.60;;;;;;;;;;5111680;27;20438;-77
2022/06/01 09:02:56;;;;;;;5.40;2.00;;;;;;;;;;5094207;28;20484;-78
2022/06/01 09:05:29;;;;;;;3.40;1.50;;;;;;;;;;5109634;28;20525;-75
2022/06/01 09:08:07;;;;;;;2.03;1.50;;;;;;;;;;5092719;28;20483;-75
2022/06/01 09:10:45;;;;;;;2.93;1.70;;;;;;;;;;5094739;28;20446;-76
2022/06/01 09:13:23;;;;;;;3.43;1.43;;;;;;;;;;5109892;28;20542;-77
2022/06/01 09:15:57;;;;;;;3.03;1.63;;;;;;;;;;5116474;27;20534;-77
2022/06/01 09:18:43;;;;;;;3.53;1.80;;;;;;;;;;5065366;28;20528;-78
2022/06/01 09:24:12;;;;;;;1.90;1.40;;;;;;;;;;5066978;28;20476;-78
2022/06/01 09:26:55;;;;;;;5.47;2.47;;;;;;;;;;5069463;28;20460;-76
2022/06/01 09:29:29;;;;;;;2.50;1.60;;;;;;;;;;5068677;28;20786;-78
2022/06/01 09:32:03;;;;;;;3.70;1.80;;;;;;;;;;5070104;28;20436;-75
2022/06/01 09:34:41;;;;;;;4.07;1.93;;;;;;;;;;5064199;28;20528;-76
2022/06/01 09:37:15;;;;;;;4.47;2.00;;;;;;;;;;5066602;28;20952;-76
2022/06/01 09:39:57;;;;;;;6.03;1.63;;;;;;;;;;5069037;28;20453;-74
2022/06/01 09:42:31;;;;;;;2.40;1.70;;;;;;;;;;5067399;28;20490;-77
2022/06/01 09:45:05;;;;;;;3.47;2.10;;;;;;;;;;5069622;28;20825;-75
2022/06/01 09:47:42;;;;;;;2.47;1.60;;;;;;;;;;5069501;28;20495;-78
2022/06/01 09:50:27;;;;;;;6.13;2.17;;;;;;;;;;5070637;28;20464;-76
2022/06/01 09:53:03;;;;;;;3.50;1.60;;;;;;;;;;5071217;28;20944;-76
2022/06/01 09:55:37;;;;;;;1.93;1.70;;;;;;;;;;5066764;28;20448;-75
2022/06/01 10:06:05;;;;;;;3.37;1.60;;;;;;;;;;5065430;28;20972;-77
2022/06/01 10:06:31;;;;;;;3.37;1.73;;;;;;;;;;5049940;28;20457;-77
2022/06/01 10:09:06;;;;;;;1.80;1.53;;;;;;;;;;5048360;28;20527;-74
2022/06/01 10:11:42;;;;;;;3.60;1.60;;;;;;;;;;5061476;28;20795;-74
2022/06/01 10:14:23;;;;;;;2.83;1.60;;;;;;;;;;5070982;28;20467;-75
2022/06/01 10:17:07;;;;;;;2.70;1.60;;;;;;;;;;5078554;28;20478;-75
2022/06/01 10:19:41;;;;;;;2.03;1.80;;;;;;;;;;5097046;28;20426;-75
2022/06/01 10:22:16;;;;;;;1.97;1.57;;;;;;;;;;5094810;28;20431;-75
2022/06/01 10:24:53;;;;;;;2.00;1.40;;;;;;;;;;5092532;28;20584;-74
2022/06/01 10:27:29;;;;;;;3.27;1.83;;;;;;;;;;5092255;28;20466;-75
2022/06/01 10:30:09;;;;;;;3.00;1.63;;;;;;;;;;5093462;28;20431;-75
2022/06/01 10:32:47;;;;;;;3.33;2.10;;;;;;;;;;5092042;28;20441;-74
2022/06/01 10:35:22;;;;;;;2.43;2.03;;;;;;;;;;5094812;28;20434;-75
2022/06/01 10:38:00;;;;;;;2.53;1.63;;;;;;;;;;5094472;28;20466;-76
2022/06/01 10:40:38;;;;;;;3.60;1.70;;;;;;;;;;5098262;28;20427;-75
2022/06/01 10:45:55;;;;;;;3.40;1.63;;;;;;;;;;5110689;28;20435;-75
2022/06/01 10:48:29;;;;;;;2.40;1.67;;;;;;;;;;5111959;28;20931;-75
2022/06/01 10:51:06;;;;;;;2.17;1.60;;;;;;;;;;5111523;28;20442;-75
2022/06/01 10:53:41;;;;;;;3.77;2.10;;;;;;;;;;5112823;28;20766;-74
2022/06/01 10:56:15;;;;;;;2.67;1.63;;;;;;;;;;5099687;28;20469;-74
2022/06/01 10:58:48;;;;;;;3.67;1.40;;;;;;;;;;5092889;28;20530;-77
2022/06/01 11:01:25;;;;;;;6.13;1.80;;;;;;;;;;5095077;28;20437;-76
2022/06/01 11:04:12;;;;;;;2.83;1.63;;;;;;;;;;5098323;28;20466;-76
2022/06/01 11:06:56;;;;;;;2.83;1.80;;;;;;;;;;5105351;28;20465;-76
2022/06/01 11:09:30;;;;;;;4.13;2.50;;;;;;;;;;5111894;28;20434;-75
2022/06/01 11:12:08;;;;;;;2.33;1.73;;;;;;;;;;5111715;28;20449;-77
2022/06/01 11:14:57;;;;;;;6.13;1.93;;;;;;;;;;5112561;28;20430;-76
2022/06/01 11:17:34;;;;;;;7.30;2.43;;;;;;;;;;5107782;28;20463;-75
2022/06/01 11:20:19;;;;;;;2.43;1.90;;;;;;;;;;5093670;28;20538;-76
2022/06/01 11:22:57;;;;;;;4.40;1.63;;;;;;;;;;5093270;28;20447;-77
2022/06/01 11:25:34;;;;;;;8.37;3.00;;;;;;;;;;5096917;28;21928;-76
2022/06/01 11:28:14;;;;;;;3.20;2.00;;;;;;;;;;5098418;28;20462;-77
2022/06/01 11:30:53;;;;;;;2.30;1.73;;;;;;;;;;5090940;28;20470;-77
2022/06/01 11:33:32;;;;;;;3.70;2.10;;;;;;;;;;5090914;28;20439;-76
2022/06/01 11:36:06;;;;;;;3.97;2.00;;;;;;;;;;5091502;28;20512;-75
2022/06/01 11:38:42;;;;;;;3.70;1.70;;;;;;;;;;5091694;28;20427;-76
2022/06/01 11:41:16;;;;;;;2.83;2.00;;;;;;;;;;5091645;28;20446;-75
2022/06/01 11:43:52;;;;;;;3.37;1.80;;;;;;;;;;5092857;28;20486;-78
2022/06/01 11:46:27;;;;;;;4.17;2.43;;;;;;;;;;5091972;28;20454;-77
2022/06/01 11:48:57;;;;;;;2.67;2.00;;;;;;;;;;5097763;28;20431;-76
2022/06/01 11:51:27;;;;;;;3.07;2.07;;;;;;;;;;5096444;28;20427;-74
2022/06/01 11:53:57;;;;;;;2.57;1.60;;;;;;;;;;5090553;28;20462;-75
2022/06/01 11:56:27;;;;;;;4.53;1.97;;;;;;;;;;5090872;28;20466;-76
2022/06/01 11:59:03;;;;;;;3.13;1.93;;;;;;;;;;5091097;28;20443;-75
2022/06/01 12:01:34;;;;;;;3.40;1.70;;;;;;;;;;5090208;28;20431;-75
2022/06/01 12:04:13;;;;;;;3.03;1.70;;;;;;;;;;5089953;28;20478;-74
2022/06/01 12:06:44;;;;;;;3.20;2.00;;;;;;;;;;5092314;28;20554;-74
2022/06/01 12:09:16;;;;;;;2.50;1.93;;;;;;;;;;5092009;28;20807;-75
2022/06/01 12:11:45;;;;;;;2.37;1.57;;;;;;;;;;5097108;28;20438;-73
2022/06/01 12:14:23;;;;;;;5.50;1.80;;;;;;;;;;5099087;28;20479;-75
2022/06/01 12:17:05;;;;;;;2.77;1.47;;;;;;;;;;5117105;27;20587;-74
2022/06/01 12:19:34;;;;;;;3.47;1.90;;;;;;;;;;5115390;27;20441;-75
2022/06/01 12:22:03;;;;;;;2.17;1.70;;;;;;;;;;5131471;27;20446;-74
2022/06/01 12:30:02;;;;;;;2.20;1.70;;;;;;;;;;5125894;27;20443;-76
2022/06/01 12:32:30;;;;;;;3.40;1.60;;;;;;;;;;5114045;27;20486;-75
2022/06/01 12:35:03;;;;;;;3.70;1.70;;;;;;;;;;5099361;27;20430;-75
2022/06/01 12:37:34;;;;;;;1.93;1.40;;;;;;;;;;5122467;27;20445;-76
2022/06/01 12:40:04;;;;;;;2.60;1.73;;;;;;;;;;5130571;27;20437;-74
2022/06/01 12:42:32;;;;;;;5.40;1.87;;;;;;;;;;5111881;27;20934;-74
2022/06/01 12:45:00;;;;;;;5.13;1.93;;;;;;;;;;5112625;27;20932;-74
2022/06/01 12:47:29;;;;;;;3.47;2.00;;;;;;;;;;5113195;27;20465;-75
2022/06/01 12:49:57;;;;;;;2.67;1.37;;;;;;;;;;5098735;28;20944;-75
2022/06/01 12:52:26;;;;;;;2.20;1.60;;;;;;;;;;5112694;28;20438;-75
2022/06/01 12:54:55;;;;;;;2.90;1.80;;;;;;;;;;5129095;27;20445;-77
2022/06/01 12:57:26;;;;;;;5.43;1.70;;;;;;;;;;5116353;27;20461;-75
2022/06/01 12:59:57;;;;;;;3.60;1.90;;;;;;;;;;5095972;28;20423;-76
2022/06/01 13:02:24;;;;;;;4.93;2.17;;;;;;;;;;5091876;28;20438;-76
2022/06/01 13:04:52;;;;;;;2.77;1.70;;;;;;;;;;5109424;28;21017;-74
2022/06/01 13:07:20;;;;;;;3.20;1.90;;;;;;;;;;5110035;28;20482;-74
2022/06/01 13:09:58;;;;;;;3.63;1.70;;;;;;;;;;5092733;28;20523;-76
2022/06/01 13:12:29;;;;;;;3.63;1.70;;;;;;;;;;5110820;28;20438;-74
2022/06/01 13:15:07;;;;;;;3.40;1.60;;;;;;;;;;5127390;27;20437;-76
2022/06/01 13:17:34;;;;;;;2.67;1.57;;;;;;;;;;5113389;28;20811;-74
2022/06/01 13:20:04;;;;;;;4.67;1.70;;;;;;;;;;5116396;27;20441;-75
2022/06/01 13:22:35;;;;;;;5.00;1.97;;;;;;;;;;5122859;28;20926;-74
2022/06/01 13:25:06;;;;;;;4.30;1.80;;;;;;;;;;5129957;28;20855;-76
2022/06/01 13:27:34;;;;;;;3.00;1.70;;;;;;;;;;5129729;27;20507;-74
2022/06/01 13:30:02;;;;;;;3.10;1.80;;;;;;;;;;5130073;28;20922;-74
2022/06/01 13:32:31;;;;;;;2.23;1.50;;;;;;;;;;5112721;28;20442;-76
2022/06/01 13:35:03;;;;;;;6.50;1.63;;;;;;;;;;5114803;28;20460;-75
2022/06/01 13:37:31;;;;;;;1.73;1.57;;;;;;;;;;5111691;28;20458;-75
2022/06/01 13:39:59;;;;;;;9.80;2.17;;;;;;;;;;5113728;28;20796;-75
2022/06/01 13:42:32;;;;;;;3.60;2.00;;;;;;;;;;5098276;28;20434;-76
2022/06/01 13:45:09;;;;;;;2.20;1.70;;;;;;;;;;5124072;28;20473;-75
2022/06/01 13:47:37;;;;;;;2.30;2.00;;;;;;;;;;5130021;27;20809;-76
2022/06/01 13:50:09;;;;;;;1.83;1.53;;;;;;;;;;5129939;28;20438;-76
2022/06/01 13:52:36;;;;;;;4.80;1.60;;;;;;;;;;5130452;28;20441;-76
2022/06/01 13:55:15;;;;;;;2.87;1.80;;;;;;;;;;5133949;27;20811;-75
2022/06/01 13:57:51;;;;;;;2.63;1.90;;;;;;;;;;5077572;28;20549;-74
2022/06/01 14:00:21;;;;;;;4.33;2.20;;;;;;;;;;5077370;28;20450;-74
2022/06/01 14:02:53;;;;;;;4.90;2.03;;;;;;;;;;5111470;27;20997;-75
2022/06/01 14:05:21;;;;;;;3.40;2.00;;;;;;;;;;5120081;27;20489;-75
2022/06/01 14:07:49;;;;;;;3.00;1.90;;;;;;;;;;5130685;27;20445;-74
2022/06/01 14:10:17;;;;;;;3.47;2.03;;;;;;;;;;5133455;27;20421;-75
2022/06/01 14:12:47;;;;;;;2.13;1.60;;;;;;;;;;5133975;27;20438;-74
2022/06/01 14:15:16;;;;;;;4.30;2.10;;;;;;;;;;5116651;27;20444;-75
2022/06/01 14:17:45;;;;;;;3.50;2.50;;;;;;;;;;5131820;27;20469;-73
2022/06/01 14:20:13;;;;;;;1.83;1.70;;;;;;;;;;5115026;28;20449;-74
2022/06/01 14:22:40;;;;;;;2.80;2.13;;;;;;;;;;5130955;27;20450;-73
2022/06/01 14:30:31;;;;;;;2.50;1.90;;;;;;;;;;5130925;27;20430;-75
2022/06/01 14:32:59;;;;;;;4.10;2.27;;;;;;;;;;5133216;27;20446;-74
2022/06/01 14:35:28;;;;;;;2.63;2.10;;;;;;;;;;5133454;27;20429;-75
2022/06/01 14:37:55;;;;;;;3.67;2.60;;;;;;;;;;5133859;27;20453;-75
2022/06/01 14:40:22;;;;;;;3.03;2.73;;;;;;;;;;5111576;27;20484;-75
2022/06/01 14:42:49;;;;;;;4.50;3.80;;;;;;;;;;5114780;28;20430;-77
2022/06/01 14:45:17;;;;;;;4.23;3.83;;;;;;;;;;5114749;28;20478;-75
2022/06/01 14:47:45;;;;;;;4.43;3.67;;;;;;;;;;5118023;27;20462;-75
2022/06/01 14:50:12;;;;;;;4.73;4.33;;;;;;;;;;5119272;27;20438;-75
2022/06/01 14:52:41;;;;;;;4.03;3.43;;;;;;;;;;5113358;27;20802;-75
2022/06/01 14:55:08;;;;;;;4.33;3.93;;;;;;;;;;5112090;28;20433;-75
2022/06/01 14:57:35;;;;;;;4.20;3.80;;;;;;;;;;5111822;28;20978;-74
2022/06/01 15:00:06;;;;;;;6.90;4.17;;;;;;;;;;5112980;28;20465;-75
2022/06/01 15:02:33;;;;;;;2.80;2.60;;;;;;;;;;5111974;28;20438;-73
2022/06/01 15:05:02;;;;;;;3.37;3.07;;;;;;;;;;5129342;27;20456;-75
2022/06/01 15:07:31;;;;;;;3.37;3.07;;;;;;;;;;5114888;28;20470;-74
2022/06/01 15:09:58;;;;;;;3.70;3.10;;;;;;;;;;5116599;27;20429;-74
2022/06/01 15:12:27;;;;;;;3.97;3.57;;;;;;;;;;5118928;27;20763;-75
2022/06/01 15:14:54;;;;;;;4.00;3.40;;;;;;;;;;5127389;27;20440;-74
2022/06/01 15:17:23;;;;;;;4.13;3.37;;;;;;;;;;5132270;27;20464;-75
2022/06/01 15:19:51;;;;;;;5.27;3.60;;;;;;;;;;5113962;27;20890;-75
2022/06/01 15:22:20;;;;;;;5.83;3.30;;;;;;;;;;5114305;27;20422;-74
2022/06/01 15:24:47;;;;;;;4.27;2.53;;;;;;;;;;5132604;27;20485;-75
2022/06/01 15:27:17;;;;;;;3.77;2.67;;;;;;;;;;5115456;27;20523;-75
2022/06/01 15:40:32;;;;;;;3.63;2.80;;;;;;;;;;5109990;28;20426;-76
2022/06/01 15:42:59;;;;;;;4.13;3.07;;;;;;;;;;5111536;28;20434;-75
2022/06/01 15:45:26;;;;;;;4.17;3.70;;;;;;;;;;5111727;28;20500;-75
2022/06/01 15:47:56;;;;;;;3.87;3.00;;;;;;;;;;5110991;28;20469;-76
2022/06/01 15:50:24;;;;;;;3.70;2.60;;;;;;;;;;5113417;28;20439;-75
2022/06/01 15:52:53;;;;;;;3.87;3.10;;;;;;;;;;5129044;27;20957;-75
2022/06/01 15:55:21;;;;;;;3.77;2.80;;;;;;;;;;5115601;27;20426;-74
2022/06/01 15:57:48;;;;;;;3.50;3.03;;;;;;;;;;5117779;27;20461;-74
2022/06/01 16:00:16;;;;;;;3.03;2.73;;;;;;;;;;5125662;27;20441;-76
2022/06/01 16:02:44;;;;;;;7.23;3.17;;;;;;;;;;5131584;27;20942;-76
2022/06/01 16:05:12;;;;;;;3.50;2.57;;;;;;;;;;5131430;27;20487;-75